sensor_id;sensor_type;location;lat;lon;timestamp;P1;durP1;ratioP1;P2;durP2;ratioP2
22922;SDS011;11627;51.322;22.816;2023-06-26T00:01:33;13.90;;;6.95;;
22922;SDS011;11627;51.322;22.816;2023-06-26T00:04:00;13.02;;;6.15;;
22922;SDS011;11627;51.322;22.816;2023-06-26T00:06:27;13.45;;;6.60;;
22922;SDS011;11627;51.322;22.816;2023-06-26T00:08:55;10.18;;;6.63;;
22922;SDS011;11627;51.322;22.816;2023-06-26T00:11:21;9.70;;;5.95;;
22922;SDS011;11627;51.322;22.816;2023-06-26T00:13:49;9.70;;;6.43;;
22922;SDS011;11627;51.322;22.816;2023-06-26T00:16:16;14.43;;;6.65;;
22922;SDS011;11627;51.322;22.816;2023-06-26T00:18:43;10.95;;;6.13;;
22922;SDS011;11627;51.322;22.816;2023-06-26T00:21:10;9.93;;;5.22;;
22922;SDS011;11627;51.322;22.816;2023-06-26T00:23:37;7.72;;;5.63;;
22922;SDS011;11627;51.322;22.816;2023-06-26T00:26:04;9.40;;;6.15;;
22922;SDS011;11627;51.322;22.816;2023-06-26T00:28:31;9.32;;;5.82;;
22922;SDS011;11627;51.322;22.816;2023-06-26T00:30:58;10.48;;;6.10;;
22922;SDS011;11627;51.322;22.816;2023-06-26T00:33:25;8.52;;;6.07;;
22922;SDS011;11627;51.322;22.816;2023-06-26T00:35:52;9.73;;;6.22;;
22922;SDS011;11627;51.322;22.816;2023-06-26T00:38:19;8.93;;;5.97;;
22922;SDS011;11627;51.322;22.816;2023-06-26T00:40:46;9.93;;;6.07;;
22922;SDS011;11627;51.322;22.816;2023-06-26T00:43:13;12.10;;;6.20;;
22922;SDS011;11627;51.322;22.816;2023-06-26T00:45:40;7.55;;;6.03;;
22922;SDS011;11627;51.322;22.816;2023-06-26T00:48:07;9.15;;;5.63;;
22922;SDS011;11627;51.322;22.816;2023-06-26T00:50:38;10.90;;;6.22;;
22922;SDS011;11627;51.322;22.816;2023-06-26T00:53:04;10.65;;;5.68;;
22922;SDS011;11627;51.322;22.816;2023-06-26T00:55:32;11.68;;;6.60;;
22922;SDS011;11627;51.322;22.816;2023-06-26T00:57:59;12.90;;;5.40;;
22922;SDS011;11627;51.322;22.816;2023-06-26T01:00:25;11.13;;;5.10;;
22922;SDS011;11627;51.322;22.816;2023-06-26T01:02:52;9.38;;;5.70;;
22922;SDS011;11627;51.322;22.816;2023-06-26T01:05:18;7.90;;;5.25;;
22922;SDS011;11627;51.322;22.816;2023-06-26T01:07:47;11.80;;;5.72;;
22922;SDS011;11627;51.322;22.816;2023-06-26T01:10:15;12.93;;;5.75;;
22922;SDS011;11627;51.322;22.816;2023-06-26T01:12:42;7.13;;;4.78;;
22922;SDS011;11627;51.322;22.816;2023-06-26T01:15:10;8.18;;;5.20;;
22922;SDS011;11627;51.322;22.816;2023-06-26T01:17:37;8.15;;;5.00;;
22922;SDS011;11627;51.322;22.816;2023-06-26T01:20:06;10.70;;;5.10;;
22922;SDS011;11627;51.322;22.816;2023-06-26T01:28:42;10.00;;;5.53;;
22922;SDS011;11627;51.322;22.816;2023-06-26T01:31:11;10.68;;;6.00;;
22922;SDS011;11627;51.322;22.816;2023-06-26T01:33:39;10.75;;;5.75;;
22922;SDS011;11627;51.322;22.816;2023-06-26T01:36:07;10.00;;;5.53;;
22922;SDS011;11627;51.322;22.816;2023-06-26T01:38:34;10.68;;;5.90;;
22922;SDS011;11627;51.322;22.816;2023-06-26T01:41:02;10.95;;;5.95;;
22922;SDS011;11627;51.322;22.816;2023-06-26T01:58:02;12.02;;;5.07;;
22922;SDS011;11627;51.322;22.816;2023-06-26T02:00:30;9.63;;;5.40;;
22922;SDS011;11627;51.322;22.816;2023-06-26T02:02:58;9.80;;;5.75;;
22922;SDS011;11627;51.322;22.816;2023-06-26T02:05:23;10.30;;;5.35;;
22922;SDS011;11627;51.322;22.816;2023-06-26T02:07:51;10.65;;;6.28;;
22922;SDS011;11627;51.322;22.816;2023-06-26T02:10:18;10.07;;;5.70;;
22922;SDS011;11627;51.322;22.816;2023-06-26T02:12:44;8.38;;;5.47;;
22922;SDS011;11627;51.322;22.816;2023-06-26T02:15:10;11.68;;;5.30;;
22922;SDS011;11627;51.322;22.816;2023-06-26T02:17:39;10.25;;;6.15;;
22922;SDS011;11627;51.322;22.816;2023-06-26T02:20:06;9.07;;;5.43;;
22922;SDS011;11627;51.322;22.816;2023-06-26T02:22:35;9.32;;;5.63;;
22922;SDS011;11627;51.322;22.816;2023-06-26T02:25:02;11.85;;;6.00;;
22922;SDS011;11627;51.322;22.816;2023-06-26T02:27:30;7.25;;;5.45;;
22922;SDS011;11627;51.322;22.816;2023-06-26T02:29:56;11.00;;;6.00;;
22922;SDS011;11627;51.322;22.816;2023-06-26T02:32:23;15.73;;;6.07;;
22922;SDS011;11627;51.322;22.816;2023-06-26T02:34:51;11.50;;;6.32;;
22922;SDS011;11627;51.322;22.816;2023-06-26T02:37:18;9.85;;;5.75;;
22922;SDS011;11627;51.322;22.816;2023-06-26T02:39:45;11.20;;;5.43;;
22922;SDS011;11627;51.322;22.816;2023-06-26T02:42:12;8.13;;;6.35;;
22922;SDS011;11627;51.322;22.816;2023-06-26T02:44:39;16.48;;;6.78;;
22922;SDS011;11627;51.322;22.816;2023-06-26T02:47:07;14.57;;;6.40;;
22922;SDS011;11627;51.322;22.816;2023-06-26T02:49:33;8.32;;;5.55;;
22922;SDS011;11627;51.322;22.816;2023-06-26T02:52:01;13.23;;;6.45;;
22922;SDS011;11627;51.322;22.816;2023-06-26T02:54:28;10.80;;;6.25;;
22922;SDS011;11627;51.322;22.816;2023-06-26T02:56:55;10.40;;;5.93;;
22922;SDS011;11627;51.322;22.816;2023-06-26T02:59:21;13.18;;;6.47;;
22922;SDS011;11627;51.322;22.816;2023-06-26T03:01:48;10.23;;;5.93;;
22922;SDS011;11627;51.322;22.816;2023-06-26T03:04:15;10.75;;;6.57;;
22922;SDS011;11627;51.322;22.816;2023-06-26T03:06:44;15.10;;;6.38;;
22922;SDS011;11627;51.322;22.816;2023-06-26T03:09:11;10.85;;;6.30;;
22922;SDS011;11627;51.322;22.816;2023-06-26T03:11:38;10.95;;;6.25;;
22922;SDS011;11627;51.322;22.816;2023-06-26T03:14:05;11.30;;;6.68;;
22922;SDS011;11627;51.322;22.816;2023-06-26T03:16:32;14.38;;;6.80;;
22922;SDS011;11627;51.322;22.816;2023-06-26T03:18:59;10.68;;;6.63;;
22922;SDS011;11627;51.322;22.816;2023-06-26T03:21:26;16.88;;;6.32;;
22922;SDS011;11627;51.322;22.816;2023-06-26T03:23:53;9.02;;;5.82;;
22922;SDS011;11627;51.322;22.816;2023-06-26T03:26:20;10.18;;;6.63;;
22922;SDS011;11627;51.322;22.816;2023-06-26T03:28:54;9.80;;;6.38;;
22922;SDS011;11627;51.322;22.816;2023-06-26T03:31:21;9.95;;;6.40;;
22922;SDS011;11627;51.322;22.816;2023-06-26T03:33:48;11.82;;;6.22;;
22922;SDS011;11627;51.322;22.816;2023-06-26T03:36:15;8.88;;;6.38;;
22922;SDS011;11627;51.322;22.816;2023-06-26T03:38:42;10.50;;;5.82;;
22922;SDS011;11627;51.322;22.816;2023-06-26T03:41:09;11.43;;;6.43;;
22922;SDS011;11627;51.322;22.816;2023-06-26T03:43:37;11.80;;;6.68;;
22922;SDS011;11627;51.322;22.816;2023-06-26T03:46:04;12.02;;;7.40;;
22922;SDS011;11627;51.322;22.816;2023-06-26T03:48:31;11.48;;;8.05;;
22922;SDS011;11627;51.322;22.816;2023-06-26T03:50:58;11.65;;;7.72;;
22922;SDS011;11627;51.322;22.816;2023-06-26T03:53:25;13.43;;;8.43;;
22922;SDS011;11627;51.322;22.816;2023-06-26T03:55:52;14.73;;;8.32;;
22922;SDS011;11627;51.322;22.816;2023-06-26T03:58:19;14.77;;;8.63;;
22922;SDS011;11627;51.322;22.816;2023-06-26T04:00:46;13.32;;;9.00;;
22922;SDS011;11627;51.322;22.816;2023-06-26T04:03:13;12.15;;;8.40;;
22922;SDS011;11627;51.322;22.816;2023-06-26T04:05:40;18.92;;;8.45;;
22922;SDS011;11627;51.322;22.816;2023-06-26T04:08:07;18.08;;;8.65;;
22922;SDS011;11627;51.322;22.816;2023-06-26T04:10:35;12.80;;;8.80;;
22922;SDS011;11627;51.322;22.816;2023-06-26T04:13:04;15.20;;;8.93;;
22922;SDS011;11627;51.322;22.816;2023-06-26T04:15:30;15.73;;;9.20;;
22922;SDS011;11627;51.322;22.816;2023-06-26T04:17:57;13.10;;;9.27;;
22922;SDS011;11627;51.322;22.816;2023-06-26T04:20:23;16.45;;;9.45;;
22922;SDS011;11627;51.322;22.816;2023-06-26T04:22:50;14.05;;;10.00;;
22922;SDS011;11627;51.322;22.816;2023-06-26T04:25:16;13.73;;;8.93;;
22922;SDS011;11627;51.322;22.816;2023-06-26T04:27:42;13.85;;;9.68;;
22922;SDS011;11627;51.322;22.816;2023-06-26T04:30:10;14.40;;;10.00;;
22922;SDS011;11627;51.322;22.816;2023-06-26T04:32:38;14.90;;;9.52;;
22922;SDS011;11627;51.322;22.816;2023-06-26T04:35:05;16.30;;;9.23;;
22922;SDS011;11627;51.322;22.816;2023-06-26T04:37:33;14.70;;;9.95;;
22922;SDS011;11627;51.322;22.816;2023-06-26T04:40:00;13.13;;;9.23;;
22922;SDS011;11627;51.322;22.816;2023-06-26T04:42:27;15.48;;;9.30;;
22922;SDS011;11627;51.322;22.816;2023-06-26T04:44:55;14.20;;;9.68;;
22922;SDS011;11627;51.322;22.816;2023-06-26T04:47:22;11.32;;;9.00;;
22922;SDS011;11627;51.322;22.816;2023-06-26T04:49:49;13.63;;;9.23;;
22922;SDS011;11627;51.322;22.816;2023-06-26T04:52:16;13.20;;;9.68;;
22922;SDS011;11627;51.322;22.816;2023-06-26T04:54:43;13.10;;;9.30;;
22922;SDS011;11627;51.322;22.816;2023-06-26T04:57:10;13.20;;;9.63;;
22922;SDS011;11627;51.322;22.816;2023-06-26T04:59:38;13.43;;;9.18;;
22922;SDS011;11627;51.322;22.816;2023-06-26T05:02:05;15.18;;;9.15;;
22922;SDS011;11627;51.322;22.816;2023-06-26T05:04:32;11.95;;;9.25;;
22922;SDS011;11627;51.322;22.816;2023-06-26T05:06:59;13.10;;;8.55;;
22922;SDS011;11627;51.322;22.816;2023-06-26T05:09:26;13.90;;;9.10;;
22922;SDS011;11627;51.322;22.816;2023-06-26T05:11:53;11.65;;;8.82;;
22922;SDS011;11627;51.322;22.816;2023-06-26T05:14:20;12.55;;;9.13;;
22922;SDS011;11627;51.322;22.816;2023-06-26T05:16:47;13.45;;;9.20;;
22922;SDS011;11627;51.322;22.816;2023-06-26T05:19:16;11.18;;;8.48;;
22922;SDS011;11627;51.322;22.816;2023-06-26T05:21:43;9.65;;;6.82;;
22922;SDS011;11627;51.322;22.816;2023-06-26T05:24:10;11.07;;;7.32;;
22922;SDS011;11627;51.322;22.816;2023-06-26T05:26:40;8.57;;;7.03;;
22922;SDS011;11627;51.322;22.816;2023-06-26T05:29:07;9.52;;;5.68;;
22922;SDS011;11627;51.322;22.816;2023-06-26T05:31:34;9.82;;;6.35;;
22922;SDS011;11627;51.322;22.816;2023-06-26T05:34:05;8.35;;;5.85;;
22922;SDS011;11627;51.322;22.816;2023-06-26T05:36:33;7.68;;;6.10;;
22922;SDS011;11627;51.322;22.816;2023-06-26T05:39:01;8.63;;;5.00;;
22922;SDS011;11627;51.322;22.816;2023-06-26T05:41:28;7.35;;;5.60;;
22922;SDS011;11627;51.322;22.816;2023-06-26T05:43:56;7.13;;;5.78;;
22922;SDS011;11627;51.322;22.816;2023-06-26T05:46:23;9.10;;;5.43;;
22922;SDS011;11627;51.322;22.816;2023-06-26T05:48:50;7.70;;;5.25;;
22922;SDS011;11627;51.322;22.816;2023-06-26T05:51:17;8.35;;;5.22;;
22922;SDS011;11627;51.322;22.816;2023-06-26T05:53:44;7.13;;;4.90;;
22922;SDS011;11627;51.322;22.816;2023-06-26T05:56:11;8.15;;;5.18;;
22922;SDS011;11627;51.322;22.816;2023-06-26T05:58:39;7.63;;;5.13;;
22922;SDS011;11627;51.322;22.816;2023-06-26T06:01:07;7.90;;;5.35;;
22922;SDS011;11627;51.322;22.816;2023-06-26T06:03:32;9.18;;;5.20;;
22922;SDS011;11627;51.322;22.816;2023-06-26T06:05:59;10.27;;;5.85;;
22922;SDS011;11627;51.322;22.816;2023-06-26T06:08:26;7.82;;;4.88;;
22922;SDS011;11627;51.322;22.816;2023-06-26T06:10:55;9.70;;;5.00;;
22922;SDS011;11627;51.322;22.816;2023-06-26T06:13:21;6.38;;;4.80;;
22922;SDS011;11627;51.322;22.816;2023-06-26T06:15:48;9.02;;;4.50;;
22922;SDS011;11627;51.322;22.816;2023-06-26T06:18:15;6.25;;;4.15;;
22922;SDS011;11627;51.322;22.816;2023-06-26T06:20:42;7.03;;;4.38;;
22922;SDS011;11627;51.322;22.816;2023-06-26T06:23:09;7.45;;;4.28;;
22922;SDS011;11627;51.322;22.816;2023-06-26T06:25:36;7.85;;;4.32;;
22922;SDS011;11627;51.322;22.816;2023-06-26T06:28:06;5.85;;;4.40;;
22922;SDS011;11627;51.322;22.816;2023-06-26T06:30:33;6.60;;;3.88;;
22922;SDS011;11627;51.322;22.816;2023-06-26T06:33:01;6.15;;;4.20;;
22922;SDS011;11627;51.322;22.816;2023-06-26T06:35:28;6.22;;;4.38;;
22922;SDS011;11627;51.322;22.816;2023-06-26T06:37:55;8.20;;;4.45;;
22922;SDS011;11627;51.322;22.816;2023-06-26T06:40:23;5.65;;;4.43;;
22922;SDS011;11627;51.322;22.816;2023-06-26T06:42:52;6.15;;;4.35;;
22922;SDS011;11627;51.322;22.816;2023-06-26T06:45:19;6.78;;;5.05;;
22922;SDS011;11627;51.322;22.816;2023-06-26T06:47:46;6.53;;;4.03;;
22922;SDS011;11627;51.322;22.816;2023-06-26T06:50:11;10.25;;;4.32;;
22922;SDS011;11627;51.322;22.816;2023-06-26T06:52:40;7.20;;;4.60;;
22922;SDS011;11627;51.322;22.816;2023-06-26T06:55:07;7.28;;;4.35;;
22922;SDS011;11627;51.322;22.816;2023-06-26T06:57:35;4.65;;;3.55;;
22922;SDS011;11627;51.322;22.816;2023-06-26T07:00:08;4.50;;;3.80;;
22922;SDS011;11627;51.322;22.816;2023-06-26T07:02:44;6.07;;;3.80;;
22922;SDS011;11627;51.322;22.816;2023-06-26T07:05:11;4.60;;;3.67;;
22922;SDS011;11627;51.322;22.816;2023-06-26T07:07:38;3.80;;;3.38;;
22922;SDS011;11627;51.322;22.816;2023-06-26T07:12:52;4.78;;;3.30;;
22922;SDS011;11627;51.322;22.816;2023-06-26T07:15:18;4.20;;;3.28;;
22922;SDS011;11627;51.322;22.816;2023-06-26T07:17:45;6.60;;;3.10;;
22922;SDS011;11627;51.322;22.816;2023-06-26T07:20:11;5.00;;;3.28;;
22922;SDS011;11627;51.322;22.816;2023-06-26T07:22:42;6.95;;;3.30;;
22922;SDS011;11627;51.322;22.816;2023-06-26T07:25:10;6.70;;;3.85;;
22922;SDS011;11627;51.322;22.816;2023-06-26T07:27:38;4.72;;;3.20;;
22922;SDS011;11627;51.322;22.816;2023-06-26T07:30:05;4.53;;;2.22;;
22922;SDS011;11627;51.322;22.816;2023-06-26T07:32:36;2.85;;;1.90;;
22922;SDS011;11627;51.322;22.816;2023-06-26T07:35:04;2.85;;;2.55;;
22922;SDS011;11627;51.322;22.816;2023-06-26T07:37:31;3.17;;;1.92;;
22922;SDS011;11627;51.322;22.816;2023-06-26T07:39:58;3.40;;;2.13;;
22922;SDS011;11627;51.322;22.816;2023-06-26T07:42:26;3.70;;;2.30;;
22922;SDS011;11627;51.322;22.816;2023-06-26T07:44:52;4.45;;;2.58;;
22922;SDS011;11627;51.322;22.816;2023-06-26T07:47:20;4.85;;;2.63;;
22922;SDS011;11627;51.322;22.816;2023-06-26T07:49:47;2.85;;;2.63;;
22922;SDS011;11627;51.322;22.816;2023-06-26T07:52:14;4.57;;;2.63;;
22922;SDS011;11627;51.322;22.816;2023-06-26T07:54:41;5.25;;;2.90;;
22922;SDS011;11627;51.322;22.816;2023-06-26T07:57:08;2.58;;;2.35;;
22922;SDS011;11627;51.322;22.816;2023-06-26T07:59:35;4.00;;;2.50;;
22922;SDS011;11627;51.322;22.816;2023-06-26T08:02:02;3.30;;;2.53;;
22922;SDS011;11627;51.322;22.816;2023-06-26T08:04:28;3.47;;;2.50;;
22922;SDS011;11627;51.322;22.816;2023-06-26T08:06:59;3.03;;;2.55;;
22922;SDS011;11627;51.322;22.816;2023-06-26T08:09:26;4.38;;;3.00;;
22922;SDS011;11627;51.322;22.816;2023-06-26T08:11:53;3.88;;;2.80;;
22922;SDS011;11627;51.322;22.816;2023-06-26T08:14:19;3.83;;;2.53;;
22922;SDS011;11627;51.322;22.816;2023-06-26T08:16:45;3.83;;;2.70;;
22922;SDS011;11627;51.322;22.816;2023-06-26T08:19:12;2.95;;;2.35;;
22922;SDS011;11627;51.322;22.816;2023-06-26T08:21:39;3.10;;;2.63;;
22922;SDS011;11627;51.322;22.816;2023-06-26T08:24:05;3.67;;;2.70;;
22922;SDS011;11627;51.322;22.816;2023-06-26T08:26:31;5.68;;;2.58;;
22922;SDS011;11627;51.322;22.816;2023-06-26T08:28:59;4.10;;;2.33;;
22922;SDS011;11627;51.322;22.816;2023-06-26T08:31:24;2.63;;;2.42;;
22922;SDS011;11627;51.322;22.816;2023-06-26T08:33:50;3.97;;;2.63;;
22922;SDS011;11627;51.322;22.816;2023-06-26T08:36:17;4.30;;;2.33;;
22922;SDS011;11627;51.322;22.816;2023-06-26T08:38:45;2.78;;;2.42;;
22922;SDS011;11627;51.322;22.816;2023-06-26T08:41:12;4.22;;;2.58;;
22922;SDS011;11627;51.322;22.816;2023-06-26T08:43:39;4.07;;;2.35;;
22922;SDS011;11627;51.322;22.816;2023-06-26T08:46:06;2.53;;;2.30;;
22922;SDS011;11627;51.322;22.816;2023-06-26T08:48:32;2.50;;;2.25;;
22922;SDS011;11627;51.322;22.816;2023-06-26T08:51:05;2.53;;;2.20;;
22922;SDS011;11627;51.322;22.816;2023-06-26T08:56:09;2.72;;;2.20;;
22922;SDS011;11627;51.322;22.816;2023-06-26T08:58:38;3.25;;;1.90;;
22922;SDS011;11627;51.322;22.816;2023-06-26T09:01:04;3.80;;;2.28;;
22922;SDS011;11627;51.322;22.816;2023-06-26T09:03:31;3.53;;;2.15;;
22922;SDS011;11627;51.322;22.816;2023-06-26T09:05:58;3.92;;;2.28;;
22922;SDS011;11627;51.322;22.816;2023-06-26T09:08:23;2.78;;;1.77;;
22922;SDS011;11627;51.322;22.816;2023-06-26T09:10:49;2.58;;;2.20;;
22922;SDS011;11627;51.322;22.816;2023-06-26T09:13:16;2.78;;;2.35;;
22922;SDS011;11627;51.322;22.816;2023-06-26T09:15:43;2.65;;;1.98;;
22922;SDS011;11627;51.322;22.816;2023-06-26T09:18:09;3.83;;;2.20;;
22922;SDS011;11627;51.322;22.816;2023-06-26T09:20:36;2.53;;;2.33;;
22922;SDS011;11627;51.322;22.816;2023-06-26T09:23:01;3.70;;;2.33;;
22922;SDS011;11627;51.322;22.816;2023-06-26T09:25:28;4.75;;;2.20;;
22922;SDS011;11627;51.322;22.816;2023-06-26T09:27:55;2.90;;;2.50;;
22922;SDS011;11627;51.322;22.816;2023-06-26T09:30:21;3.15;;;2.30;;
22922;SDS011;11627;51.322;22.816;2023-06-26T09:32:47;2.67;;;2.33;;
22922;SDS011;11627;51.322;22.816;2023-06-26T09:35:14;3.92;;;2.20;;
22922;SDS011;11627;51.322;22.816;2023-06-26T09:37:40;2.22;;;1.98;;
22922;SDS011;11627;51.322;22.816;2023-06-26T09:40:09;2.90;;;2.33;;
22922;SDS011;11627;51.322;22.816;2023-06-26T09:42:35;4.57;;;2.40;;
22922;SDS011;11627;51.322;22.816;2023-06-26T09:45:01;3.05;;;2.20;;
22922;SDS011;11627;51.322;22.816;2023-06-26T09:47:29;2.65;;;2.25;;
22922;SDS011;11627;51.322;22.816;2023-06-26T09:49:57;3.92;;;2.15;;
22922;SDS011;11627;51.322;22.816;2023-06-26T09:52:25;4.35;;;2.30;;
22922;SDS011;11627;51.322;22.816;2023-06-26T09:55:06;3.30;;;2.55;;
22922;SDS011;11627;51.322;22.816;2023-06-26T09:57:34;2.13;;;1.92;;
22922;SDS011;11627;51.322;22.816;2023-06-26T10:00:01;2.83;;;2.38;;
22922;SDS011;11627;51.322;22.816;2023-06-26T10:02:28;3.53;;;2.33;;
22922;SDS011;11627;51.322;22.816;2023-06-26T10:04:53;3.25;;;2.50;;
22922;SDS011;11627;51.322;22.816;2023-06-26T10:07:19;2.28;;;2.08;;
22922;SDS011;11627;51.322;22.816;2023-06-26T10:09:48;2.65;;;2.30;;
22922;SDS011;11627;51.322;22.816;2023-06-26T10:12:20;2.72;;;2.47;;
22922;SDS011;11627;51.322;22.816;2023-06-26T10:14:52;2.70;;;2.40;;
22922;SDS011;11627;51.322;22.816;2023-06-26T10:17:19;4.55;;;2.63;;
22922;SDS011;11627;51.322;22.816;2023-06-26T10:19:46;2.88;;;2.55;;
22922;SDS011;11627;51.322;22.816;2023-06-26T10:22:17;2.67;;;2.33;;
22922;SDS011;11627;51.322;22.816;2023-06-26T10:24:47;4.07;;;2.67;;
22922;SDS011;11627;51.322;22.816;2023-06-26T10:27:18;4.47;;;2.85;;
22922;SDS011;11627;51.322;22.816;2023-06-26T10:29:54;5.03;;;2.80;;
22922;SDS011;11627;51.322;22.816;2023-06-26T10:32:34;3.97;;;2.60;;
22922;SDS011;11627;51.322;22.816;2023-06-26T10:35:02;4.43;;;2.65;;
22922;SDS011;11627;51.322;22.816;2023-06-26T10:37:44;5.47;;;2.40;;
22922;SDS011;11627;51.322;22.816;2023-06-26T10:40:12;5.63;;;2.40;;
22922;SDS011;11627;51.322;22.816;2023-06-26T10:42:39;4.10;;;2.42;;
22922;SDS011;11627;51.322;22.816;2023-06-26T10:45:14;4.00;;;2.50;;
22922;SDS011;11627;51.322;22.816;2023-06-26T10:47:42;3.58;;;2.60;;
22922;SDS011;11627;51.322;22.816;2023-06-26T10:50:20;3.58;;;2.55;;
22922;SDS011;11627;51.322;22.816;2023-06-26T11:01:16;2.55;;;2.28;;
22922;SDS011;11627;51.322;22.816;2023-06-26T11:03:47;2.63;;;2.42;;
22922;SDS011;11627;51.322;22.816;2023-06-26T11:06:17;4.05;;;2.50;;
22922;SDS011;11627;51.322;22.816;2023-06-26T11:08:53;5.47;;;2.95;;
22922;SDS011;11627;51.322;22.816;2023-06-26T11:14:17;2.75;;;2.40;;
22922;SDS011;11627;51.322;22.816;2023-06-26T11:16:45;3.90;;;2.60;;
22922;SDS011;11627;51.322;22.816;2023-06-26T11:19:12;2.63;;;2.42;;
22922;SDS011;11627;51.322;22.816;2023-06-26T11:21:39;3.05;;;2.47;;
22922;SDS011;11627;51.322;22.816;2023-06-26T11:24:08;4.25;;;2.65;;
22922;SDS011;11627;51.322;22.816;2023-06-26T11:26:40;2.85;;;2.45;;
22922;SDS011;11627;51.322;22.816;2023-06-26T11:29:07;3.55;;;2.53;;
22922;SDS011;11627;51.322;22.816;2023-06-26T11:31:34;4.10;;;2.60;;
22922;SDS011;11627;51.322;22.816;2023-06-26T11:34:05;3.50;;;2.95;;
22922;SDS011;11627;51.322;22.816;2023-06-26T11:36:34;3.17;;;2.60;;
22922;SDS011;11627;51.322;22.816;2023-06-26T11:39:03;4.30;;;2.78;;
22922;SDS011;11627;51.322;22.816;2023-06-26T11:41:31;4.53;;;2.95;;
22922;SDS011;11627;51.322;22.816;2023-06-26T11:44:01;3.33;;;2.80;;
22922;SDS011;11627;51.322;22.816;2023-06-26T11:46:28;3.70;;;2.95;;
22922;SDS011;11627;51.322;22.816;2023-06-26T11:48:55;2.85;;;2.65;;
22922;SDS011;11627;51.322;22.816;2023-06-26T11:51:20;3.03;;;2.72;;
22922;SDS011;11627;51.322;22.816;2023-06-26T11:53:47;5.03;;;2.70;;
22922;SDS011;11627;51.322;22.816;2023-06-26T11:56:13;3.72;;;3.03;;
22922;SDS011;11627;51.322;22.816;2023-06-26T11:58:56;3.22;;;2.78;;
22922;SDS011;11627;51.322;22.816;2023-06-26T12:01:27;4.63;;;2.92;;
22922;SDS011;11627;51.322;22.816;2023-06-26T12:04:00;4.22;;;2.90;;
22922;SDS011;11627;51.322;22.816;2023-06-26T12:06:29;5.32;;;3.20;;
22922;SDS011;11627;51.322;22.816;2023-06-26T12:08:58;6.68;;;2.85;;
22922;SDS011;11627;51.322;22.816;2023-06-26T12:11:25;3.38;;;2.97;;
22922;SDS011;11627;51.322;22.816;2023-06-26T12:13:54;3.45;;;2.85;;
22922;SDS011;11627;51.322;22.816;2023-06-26T12:16:20;6.53;;;2.70;;
22922;SDS011;11627;51.322;22.816;2023-06-26T12:18:47;4.28;;;2.80;;
22922;SDS011;11627;51.322;22.816;2023-06-26T12:24:07;3.25;;;2.75;;
22922;SDS011;11627;51.322;22.816;2023-06-26T12:26:35;4.07;;;2.83;;
22922;SDS011;11627;51.322;22.816;2023-06-26T12:29:11;4.93;;;3.13;;
22922;SDS011;11627;51.322;22.816;2023-06-26T12:31:42;2.90;;;2.60;;
22922;SDS011;11627;51.322;22.816;2023-06-26T12:34:11;6.22;;;3.30;;
22922;SDS011;11627;51.322;22.816;2023-06-26T12:36:50;3.53;;;2.95;;
22922;SDS011;11627;51.322;22.816;2023-06-26T12:39:19;3.03;;;2.75;;
22922;SDS011;11627;51.322;22.816;2023-06-26T12:41:55;6.90;;;3.75;;
22922;SDS011;11627;51.322;22.816;2023-06-26T12:44:36;3.80;;;3.40;;
22922;SDS011;11627;51.322;22.816;2023-06-26T12:47:03;3.80;;;3.40;;
22922;SDS011;11627;51.322;22.816;2023-06-26T12:49:33;3.58;;;3.22;;
22922;SDS011;11627;51.322;22.816;2023-06-26T12:52:06;4.22;;;3.53;;
22922;SDS011;11627;51.322;22.816;2023-06-26T12:54:37;8.00;;;3.90;;
22922;SDS011;11627;51.322;22.816;2023-06-26T12:57:06;5.47;;;4.00;;
22922;SDS011;11627;51.322;22.816;2023-06-26T12:59:34;4.55;;;4.10;;
22922;SDS011;11627;51.322;22.816;2023-06-26T13:02:08;7.30;;;5.13;;
22922;SDS011;11627;51.322;22.816;2023-06-26T13:04:40;7.57;;;4.90;;
22922;SDS011;11627;51.322;22.816;2023-06-26T13:07:10;8.90;;;5.07;;
22922;SDS011;11627;51.322;22.816;2023-06-26T13:09:37;8.40;;;5.13;;
22922;SDS011;11627;51.322;22.816;2023-06-26T13:12:05;7.65;;;5.45;;
22922;SDS011;11627;51.322;22.816;2023-06-26T13:14:31;7.60;;;4.88;;
22922;SDS011;11627;51.322;22.816;2023-06-26T13:17:00;8.02;;;5.05;;
22922;SDS011;11627;51.322;22.816;2023-06-26T13:19:27;7.22;;;5.18;;
22922;SDS011;11627;51.322;22.816;2023-06-26T13:21:54;7.75;;;5.30;;
22922;SDS011;11627;51.322;22.816;2023-06-26T13:24:21;6.13;;;4.97;;
22922;SDS011;11627;51.322;22.816;2023-06-26T13:26:48;7.70;;;5.38;;
22922;SDS011;11627;51.322;22.816;2023-06-26T13:29:14;8.40;;;5.25;;
22922;SDS011;11627;51.322;22.816;2023-06-26T13:31:42;7.20;;;5.22;;
22922;SDS011;11627;51.322;22.816;2023-06-26T13:34:09;7.22;;;4.80;;
22922;SDS011;11627;51.322;22.816;2023-06-26T13:36:50;5.88;;;5.05;;
22922;SDS011;11627;51.322;22.816;2023-06-26T13:39:18;8.15;;;5.25;;
22922;SDS011;11627;51.322;22.816;2023-06-26T13:41:45;8.48;;;5.10;;
22922;SDS011;11627;51.322;22.816;2023-06-26T13:44:12;5.95;;;5.00;;
22922;SDS011;11627;51.322;22.816;2023-06-26T13:46:39;6.32;;;5.00;;
22922;SDS011;11627;51.322;22.816;2023-06-26T13:49:06;5.78;;;4.80;;
22922;SDS011;11627;51.322;22.816;2023-06-26T13:51:33;6.22;;;4.70;;
22922;SDS011;11627;51.322;22.816;2023-06-26T13:54:00;7.20;;;5.20;;
22922;SDS011;11627;51.322;22.816;2023-06-26T13:56:27;5.75;;;5.00;;
22922;SDS011;11627;51.322;22.816;2023-06-26T13:58:56;5.68;;;4.95;;
22922;SDS011;11627;51.322;22.816;2023-06-26T14:01:24;6.28;;;4.45;;
22922;SDS011;11627;51.322;22.816;2023-06-26T14:03:51;5.80;;;4.50;;
22922;SDS011;11627;51.322;22.816;2023-06-26T14:06:19;7.00;;;4.68;;
22922;SDS011;11627;51.322;22.816;2023-06-26T14:08:45;5.53;;;5.03;;
22922;SDS011;11627;51.322;22.816;2023-06-26T14:11:13;6.05;;;4.97;;
22922;SDS011;11627;51.322;22.816;2023-06-26T14:13:41;6.38;;;4.18;;
22922;SDS011;11627;51.322;22.816;2023-06-26T14:16:08;7.45;;;4.65;;
22922;SDS011;11627;51.322;22.816;2023-06-26T14:18:37;10.48;;;4.68;;
22922;SDS011;11627;51.322;22.816;2023-06-26T14:21:03;5.15;;;4.55;;
22922;SDS011;11627;51.322;22.816;2023-06-26T14:23:29;5.35;;;4.35;;
22922;SDS011;11627;51.322;22.816;2023-06-26T14:25:56;6.88;;;4.60;;
22922;SDS011;11627;51.322;22.816;2023-06-26T14:28:23;5.47;;;4.53;;
22922;SDS011;11627;51.322;22.816;2023-06-26T14:30:48;5.40;;;4.18;;
22922;SDS011;11627;51.322;22.816;2023-06-26T14:33:16;5.78;;;4.60;;
22922;SDS011;11627;51.322;22.816;2023-06-26T14:35:43;6.85;;;4.53;;
22922;SDS011;11627;51.322;22.816;2023-06-26T14:38:12;5.50;;;4.32;;
22922;SDS011;11627;51.322;22.816;2023-06-26T14:40:39;4.75;;;3.70;;
22922;SDS011;11627;51.322;22.816;2023-06-26T14:43:06;4.82;;;4.07;;
22922;SDS011;11627;51.322;22.816;2023-06-26T14:45:33;5.22;;;3.92;;
22922;SDS011;11627;51.322;22.816;2023-06-26T14:48:00;5.13;;;4.13;;
22922;SDS011;11627;51.322;22.816;2023-06-26T14:50:26;5.10;;;3.80;;
22922;SDS011;11627;51.322;22.816;2023-06-26T14:52:53;6.53;;;4.10;;
22922;SDS011;11627;51.322;22.816;2023-06-26T14:55:20;4.82;;;4.20;;
22922;SDS011;11627;51.322;22.816;2023-06-26T14:57:49;5.65;;;4.10;;
22922;SDS011;11627;51.322;22.816;2023-06-26T15:00:14;4.68;;;3.80;;
22922;SDS011;11627;51.322;22.816;2023-06-26T15:02:42;5.07;;;4.22;;
22922;SDS011;11627;51.322;22.816;2023-06-26T15:05:09;6.25;;;3.63;;
22922;SDS011;11627;51.322;22.816;2023-06-26T15:07:36;5.25;;;3.30;;
22922;SDS011;11627;51.322;22.816;2023-06-26T15:10:03;8.40;;;3.97;;
22922;SDS011;11627;51.322;22.816;2023-06-26T15:12:32;6.90;;;3.60;;
22922;SDS011;11627;51.322;22.816;2023-06-26T15:14:59;4.82;;;3.72;;